ソルト・レーク・シティ国際空港の過去48時間の天気

ソルト・レーク・シティ国際空港 (Salt Lake City, Salt Lake City International Airport)

現在時刻: 9/28 02:47 MDT (9/28 08:47 UTC) 以下の時間は現地時間です。

過去48時間のMETAR気象情報
時間 風向 風速(m/s) 視程 気温(℃) 湿度(%) 気圧(hPa) 天気現象
28 01:54 静穏 0 10km以上 9.4 54 1025.6
28 00:54 西 2 10km以上 11.1 50 1024.9
27 23:54 静穏 0 10km以上 12.2 45 1024.6
27 22:54 東南東 2 10km以上 12.8 43 1024.2
27 21:54 南東 3 10km以上 14.4 39 1024
27 20:54 2 10km以上 14.4 39 1024
27 19:54 静穏 0 10km以上 15 36 1024.1
27 18:54 西 5 10km以上 16.7 32 1023.5
27 17:54 西北西 5 10km以上 18.3 28 1023.2
27 16:54 西北西 7 10km以上 18.9 27 1022.9
27 15:54 北西 4 10km以上 18.9 24 1022.9
27 14:54 北北西 3 10km以上 18.9 26 1023.2
27 13:54 西北西 5 10km以上 18.3 29 1023.7
KSLC 280754Z 00000KT 10SM CLR 09/01 A3036 RMK AO2 SLP256 T00940006 $
KSLC 280654Z 27004KT 10SM CLR 11/01 A3035 RMK AO2 SLP249 T01110011 401940094 $
KSLC 280554Z 00000KT 10SM CLR 12/01 A3034 RMK AO2 SLP246 T01220006 10183 20117 51005 $
KSLC 280454Z 11004KT 10SM CLR 13/01 A3033 RMK AO2 SLP242 T01280006 $
KSLC 280354Z 13006KT 10SM CLR 14/01 A3033 RMK AO2 SLP240 T01440006 $
KSLC 280254Z 09003KT 10SM CLR 14/01 A3032 RMK AO2 SLP240 T01440006 53005 $
KSLC 280154Z 00000KT 10SM CLR 15/00 A3031 RMK AO2 SLP241 T01500000 $
KSLC 280054Z 28010KT 10SM FEW200 17/00 A3030 RMK AO2 SLP235 T01670000 $
KSLC 272354Z 29009KT 10SM FEW200 18/M01 A3030 RMK AO2 SLP232 T01831006 10194 20167 55002 $
KSLC 272254Z 30014KT 9SM FEW100 SCT200 19/M01 A3030 RMK AO2 SLP229 T01891006 $
KSLC 272154Z 32008KT 10SM FEW100 SCT200 SCT250 19/M02 A3030 RMK AO2 SLP229 T01891022 $
KSLC 272054Z 34006G15KT 10SM FEW070 SCT200 BKN250 19/M01 A3031 RMK AO2 SLP232 T01891011 58004 $
KSLC 271954Z 30009KT 10SM FEW070 SCT130 BKN200 18/00 A3032 RMK AO2 SLP237 T01830000 $